Time;durP1;ratioP1;P1;durP2;ratioP2;P2;SDS_P1;SDS_P2;PMS_P1;PMS_P2;Temp;Humidity;BMP_temperature;BMP_pressure;BME280_temperature;BME280_humidity;BME280_pressure;Samples;Min_cycle;Max_cycle;Signal;HPM_P1;HPM_P2
2021/12/10 00:00:09;;;;;;;15.43;3.65;;;10.10;99.90;;;;;;5054773;28;20028;-75
2021/12/10 00:02:35;;;;;;;20.27;4.15;;;10.00;99.90;;;;;;5054701;28;20020;-74
2021/12/10 00:05:04;;;;;;;18.50;4.07;;;10.00;99.90;;;;;;5054921;28;20122;-76
2021/12/10 00:07:31;;;;;;;20.00;4.20;;;10.00;99.90;;;;;;5054541;28;20013;-75
2021/12/10 00:10:00;;;;;;;22.20;5.28;;;10.00;99.90;;;;;;5053321;28;20485;-75
2021/12/10 00:12:35;;;;;;;16.83;4.40;;;10.00;99.90;;;;;;5054827;28;20017;-75
2021/12/10 00:15:02;;;;;;;24.48;3.97;;;9.90;99.90;;;;;;5054503;28;20029;-75
2021/12/10 00:17:28;;;;;;;23.35;4.93;;;9.90;99.90;;;;;;5054429;28;20039;-73
2021/12/10 00:19:57;;;;;;;18.80;4.32;;;9.90;99.90;;;;;;5054407;28;20021;-74
2021/12/10 00:22:36;;;;;;;15.07;3.80;;;10.00;99.90;;;;;;5054634;28;20021;-75
2021/12/10 00:25:04;;;;;;;26.25;4.38;;;10.00;99.90;;;;;;5054217;28;20076;-76
2021/12/10 00:27:32;;;;;;;23.10;4.40;;;10.00;99.90;;;;;;5053662;28;20052;-73
2021/12/10 00:30:08;;;;;;;18.05;3.80;;;10.00;99.90;;;;;;5053602;28;20021;-75
2021/12/10 00:32:39;;;;;;;15.88;3.67;;;10.00;99.90;;;;;;5054708;28;20102;-74
2021/12/10 00:35:17;;;;;;;25.65;5.32;;;10.00;99.90;;;;;;5054670;28;20101;-75
2021/12/10 00:37:43;;;;;;;19.80;4.10;;;10.00;99.90;;;;;;5054417;28;20024;-74
2021/12/10 00:40:11;;;;;;;17.70;4.25;;;10.00;99.90;;;;;;5054024;28;20029;-75
2021/12/10 00:42:37;;;;;;;20.58;3.65;;;10.00;99.90;;;;;;5054464;28;20029;-73
2021/12/10 00:45:07;;;;;;;21.90;5.03;;;10.00;99.90;;;;;;5053906;28;20066;-74
2021/12/10 00:47:33;;;;;;;17.85;3.70;;;9.90;99.90;;;;;;5054119;28;20029;-75
2021/12/10 00:50:00;;;;;;;21.67;5.72;;;9.90;99.90;;;;;;5053874;28;20024;-75
2021/12/10 00:52:26;;;;;;;20.50;4.65;;;9.80;99.90;;;;;;5054082;28;20044;-77
2021/12/10 00:54:52;;;;;;;22.67;4.28;;;9.80;99.90;;;;;;5053787;28;20020;-75
2021/12/10 00:57:18;;;;;;;16.75;4.05;;;9.80;99.90;;;;;;5053727;28;20084;-74
2021/12/10 00:59:46;;;;;;;19.48;4.68;;;9.70;99.90;;;;;;5053718;28;20424;-75
2021/12/10 01:02:15;;;;;;;18.70;4.03;;;9.70;99.90;;;;;;5053649;28;20063;-75
2021/12/10 01:04:44;;;;;;;23.63;4.50;;;9.70;99.90;;;;;;5052308;28;20404;-75
2021/12/10 01:07:14;;;;;;;21.35;4.88;;;9.80;99.90;;;;;;5053549;28;20021;-74
2021/12/10 01:09:44;;;;;;;20.45;4.20;;;9.80;99.90;;;;;;5053540;28;20481;-76
2021/12/10 01:12:15;;;;;;;17.88;3.65;;;9.80;99.90;;;;;;5053490;28;20017;-73
2021/12/10 01:27:58;;;;;;;19.30;3.97;;;9.70;99.90;;;;;;5053067;28;20048;-75
2021/12/10 01:30:27;;;;;;;16.45;4.38;;;9.70;99.90;;;;;;5053492;28;20032;-74
2021/12/10 01:33:05;;;;;;;18.90;3.92;;;9.70;99.90;;;;;;5053223;28;20104;-75
2021/12/10 01:35:34;;;;;;;18.17;2.97;;;9.60;99.90;;;;;;5053504;28;20025;-74
2021/12/10 01:38:01;;;;;;;18.38;3.53;;;9.60;99.90;;;;;;5053689;28;20025;-75
2021/12/10 01:40:28;;;;;;;14.07;3.38;;;9.60;99.90;;;;;;5052421;28;20055;-74
2021/12/10 01:43:02;;;;;;;11.90;3.20;;;9.60;99.90;;;;;;5053373;28;20025;-75
2021/12/10 01:45:31;;;;;;;17.02;3.95;;;9.60;99.90;;;;;;5051588;28;20033;-75
2021/12/10 01:48:05;;;;;;;13.93;3.10;;;9.60;99.90;;;;;;5052979;28;20488;-75
2021/12/10 01:50:32;;;;;;;14.50;3.28;;;9.50;99.90;;;;;;5053061;28;20033;-74
2021/12/10 01:53:00;;;;;;;17.27;3.45;;;9.50;99.90;;;;;;5051827;28;20425;-74
2021/12/10 01:55:28;;;;;;;15.90;3.10;;;9.50;99.90;;;;;;5051744;28;20408;-75
2021/12/10 01:57:55;;;;;;;13.27;2.58;;;9.50;99.90;;;;;;5053019;28;20143;-74
2021/12/10 02:00:26;;;;;;;12.77;2.88;;;9.50;99.90;;;;;;5051932;28;20028;-74
2021/12/10 02:02:52;;;;;;;16.58;3.22;;;9.40;99.90;;;;;;5053253;28;20025;-76
2021/12/10 02:05:18;;;;;;;9.73;3.03;;;9.40;99.90;;;;;;5052890;28;20028;-75
2021/12/10 02:07:45;;;;;;;14.50;2.20;;;9.40;99.90;;;;;;5052831;28;20107;-73
2021/12/10 02:10:13;;;;;;;12.68;3.00;;;9.40;99.90;;;;;;5053129;28;20529;-75
2021/12/10 02:12:39;;;;;;;12.50;2.00;;;9.30;99.90;;;;;;5053102;28;20017;-75
2021/12/10 02:15:07;;;;;;;12.48;2.60;;;9.30;99.90;;;;;;5051581;28;20533;-73
2021/12/10 02:17:39;;;;;;;14.45;2.70;;;9.30;99.90;;;;;;5052754;28;20056;-76
2021/12/10 02:20:34;;;;;;;14.10;2.67;;;9.30;99.90;;;;;;5053368;28;20025;-76
2021/12/10 02:23:03;;;;;;;9.18;2.30;;;9.30;99.90;;;;;;5052427;28;20033;-73
2021/12/10 02:25:31;;;;;;;10.10;2.22;;;9.30;99.90;;;;;;5052628;28;20025;-76
2021/12/10 02:27:58;;;;;;;17.10;2.80;;;9.30;99.90;;;;;;5052443;28;20401;-74
2021/12/10 02:30:27;;;;;;;15.40;2.10;;;9.30;99.90;;;;;;5052667;28;20384;-75
2021/12/10 02:32:53;;;;;;;10.43;2.33;;;9.20;99.90;;;;;;5052922;28;20051;-76
2021/12/10 02:35:19;;;;;;;11.18;2.28;;;9.20;99.90;;;;;;5052906;28;20022;-75
2021/12/10 02:37:46;;;;;;;10.77;1.88;;;9.20;99.90;;;;;;5052596;28;20025;-74
2021/12/10 02:40:15;;;;;;;12.38;2.03;;;9.20;99.90;;;;;;5052897;28;20021;-75
2021/12/10 02:42:41;;;;;;;10.20;2.28;;;9.10;99.90;;;;;;5052475;28;20029;-76
2021/12/10 02:45:15;;;;;;;8.27;1.92;;;9.10;99.90;;;;;;5052835;28;20032;-73
2021/12/10 02:47:41;;;;;;;11.13;1.95;;;9.10;99.90;;;;;;5052776;28;20484;-73
2021/12/10 02:50:09;;;;;;;11.73;1.85;;;9.10;99.90;;;;;;5052507;28;20100;-75
2021/12/10 02:52:34;;;;;;;9.38;1.50;;;9.10;99.90;;;;;;5055209;28;20110;-75
2021/12/10 02:55:00;;;;;;;8.52;1.52;;;9.10;99.90;;;;;;5056307;28;20488;-74
2021/12/10 02:57:26;;;;;;;8.07;2.30;;;9.10;99.90;;;;;;5056549;28;20047;-75
2021/12/10 02:59:53;;;;;;;12.55;2.38;;;9.10;99.90;;;;;;5055947;28;20103;-74
2021/12/10 03:02:24;;;;;;;11.40;2.15;;;9.00;99.90;;;;;;5055879;28;20610;-74
2021/12/10 03:04:50;;;;;;;10.38;2.25;;;9.00;99.90;;;;;;5055944;28;20056;-75
2021/12/10 03:07:18;;;;;;;3.95;1.20;;;9.00;99.90;;;;;;5056385;28;20071;-74
2021/12/10 03:09:47;;;;;;;17.10;1.80;;;9.00;99.90;;;;;;5055673;28;20385;-75
2021/12/10 03:12:14;;;;;;;10.30;1.98;;;9.00;99.90;;;;;;5055697;28;20147;-73
2021/12/10 03:14:45;;;;;;;10.32;2.13;;;8.90;99.90;;;;;;5055725;28;20047;-76
2021/12/10 03:17:17;;;;;;;8.30;1.98;;;8.90;99.90;;;;;;5055632;28;20036;-76
2021/12/10 03:19:42;;;;;;;9.10;2.15;;;8.90;99.90;;;;;;5055595;28;20079;-73
2021/12/10 03:22:08;;;;;;;8.07;1.50;;;8.90;99.90;;;;;;5055511;28;20029;-74
2021/12/10 03:24:35;;;;;;;11.75;1.98;;;8.80;99.90;;;;;;5055686;28;20021;-74
2021/12/10 03:27:03;;;;;;;7.40;1.30;;;8.80;99.90;;;;;;5055590;28;20536;-75
2021/12/10 03:29:31;;;;;;;9.02;1.52;;;8.80;99.90;;;;;;5054007;28;20401;-75
2021/12/10 03:32:00;;;;;;;7.22;1.38;;;8.80;99.90;;;;;;5055596;28;20028;-74
2021/12/10 03:34:26;;;;;;;6.97;1.63;;;8.80;99.90;;;;;;5055284;28;20025;-74
2021/12/10 03:36:53;;;;;;;8.70;2.38;;;8.80;99.90;;;;;;5055224;28;20435;-76
2021/12/10 03:39:23;;;;;;;7.47;1.83;;;8.70;99.90;;;;;;5055195;28;20515;-76
2021/12/10 03:41:50;;;;;;;14.50;2.30;;;8.70;99.90;;;;;;5055652;28;20052;-73
2021/12/10 03:44:16;;;;;;;7.40;1.60;;;8.70;99.90;;;;;;5055040;28;20400;-75
2021/12/10 03:46:43;;;;;;;8.95;1.70;;;8.70;99.90;;;;;;5055066;28;20108;-76
2021/12/10 03:49:09;;;;;;;11.80;2.00;;;8.70;99.90;;;;;;5055236;28;20103;-76
2021/12/10 03:51:37;;;;;;;9.80;1.70;;;8.70;99.90;;;;;;5055008;28;20024;-74
2021/12/10 03:54:06;;;;;;;13.25;1.73;;;8.60;99.90;;;;;;5054895;28;20048;-76
2021/12/10 03:56:33;;;;;;;10.20;1.55;;;8.50;99.90;;;;;;5055154;28;20021;-74
2021/12/10 03:59:03;;;;;;;16.55;3.65;;;8.50;99.90;;;;;;5055151;28;20025;-75
2021/12/10 04:01:32;;;;;;;13.33;2.73;;;8.50;99.90;;;;;;5053564;28;20029;-75
2021/12/10 04:04:01;;;;;;;6.78;1.33;;;8.50;99.90;;;;;;5054621;28;20021;-74
2021/12/10 04:06:28;;;;;;;10.35;2.28;;;8.50;99.90;;;;;;5054953;28;20420;-75
2021/12/10 04:08:54;;;;;;;9.48;2.72;;;8.50;99.90;;;;;;5054836;28;20029;-74
2021/12/10 04:11:21;;;;;;;10.43;2.22;;;8.50;99.90;;;;;;5054581;28;20108;-74
2021/12/10 04:13:49;;;;;;;9.63;2.00;;;8.40;99.90;;;;;;5054545;28;20064;-74
2021/12/10 04:16:17;;;;;;;9.85;1.85;;;8.40;99.90;;;;;;5054764;28;20018;-74
2021/12/10 04:18:45;;;;;;;8.23;1.45;;;8.40;99.90;;;;;;5054420;28;20071;-75
2021/12/10 04:21:12;;;;;;;10.23;2.05;;;8.40;99.90;;;;;;5053138;28;20029;-75
2021/12/10 04:23:41;;;;;;;6.20;2.03;;;8.40;99.90;;;;;;5054248;28;20029;-74
2021/12/10 04:26:08;;;;;;;8.93;1.73;;;8.40;99.90;;;;;;5054322;28;20025;-74
2021/12/10 04:28:34;;;;;;;10.77;1.73;;;8.30;99.90;;;;;;5053743;28;20091;-73
2021/12/10 04:30:59;;;;;;;10.75;1.65;;;8.30;99.90;;;;;;5054233;28;20021;-74
2021/12/10 04:33:26;;;;;;;7.18;1.50;;;8.30;99.90;;;;;;5054159;28;20021;-73
2021/12/10 04:35:54;;;;;;;11.52;1.73;;;8.30;99.90;;;;;;5054144;28;20025;-75
2021/12/10 04:38:21;;;;;;;8.30;1.67;;;8.30;99.90;;;;;;5054697;28;20354;-76
2021/12/10 04:40:49;;;;;;;9.48;1.88;;;8.30;99.90;;;;;;5054053;28;20025;-75
2021/12/10 04:43:20;;;;;;;9.05;1.50;;;8.30;99.90;;;;;;5053993;28;20473;-75
2021/12/10 04:45:47;;;;;;;10.55;2.03;;;8.20;99.90;;;;;;5053955;28;20049;-74
2021/12/10 04:48:13;;;;;;;10.80;1.90;;;8.30;99.90;;;;;;5053795;28;20035;-74
2021/12/10 04:50:39;;;;;;;10.27;1.80;;;8.30;99.90;;;;;;5053887;28;20032;-76
2021/12/10 04:53:07;;;;;;;12.13;2.10;;;8.30;99.90;;;;;;5053835;28;20032;-76
2021/12/10 04:55:33;;;;;;;9.57;2.30;;;8.30;99.90;;;;;;5054016;28;20025;-74
2021/12/10 04:57:59;;;;;;;7.95;1.77;;;8.30;99.90;;;;;;5054293;28;20040;-77
2021/12/10 05:00:30;;;;;;;9.60;1.73;;;8.30;99.90;;;;;;5053976;28;20025;-74
2021/12/10 05:03:00;;;;;;;8.82;1.60;;;8.30;99.90;;;;;;5054144;28;20122;-75
2021/12/10 05:05:27;;;;;;;11.80;1.80;;;8.30;99.90;;;;;;5052324;28;20021;-76
2021/12/10 05:07:53;;;;;;;9.30;1.95;;;8.30;99.90;;;;;;5052182;28;20414;-73
2021/12/10 05:10:20;;;;;;;6.85;1.42;;;8.30;99.90;;;;;;5053498;28;20017;-76
2021/12/10 05:12:46;;;;;;;9.40;2.35;;;8.30;99.90;;;;;;5054005;28;20025;-76
2021/12/10 05:15:17;;;;;;;7.10;2.10;;;8.30;99.90;;;;;;5052925;28;20473;-74
2021/12/10 05:17:45;;;;;;;7.53;2.05;;;8.30;99.90;;;;;;5053731;28;20031;-74
2021/12/10 05:20:14;;;;;;;6.38;1.67;;;8.20;99.90;;;;;;5052120;28;20417;-75
2021/12/10 05:22:44;;;;;;;5.23;1.20;;;8.20;99.90;;;;;;5053690;28;20048;-74
2021/12/10 05:25:11;;;;;;;3.83;1.23;;;8.20;99.90;;;;;;5053333;28;20021;-76
2021/12/10 05:27:38;;;;;;;6.25;1.25;;;8.20;99.90;;;;;;5052782;28;20041;-74
2021/12/10 05:30:05;;;;;;;9.35;2.00;;;8.10;99.90;;;;;;5053244;28;20032;-76
2021/12/10 05:32:31;;;;;;;8.10;1.77;;;8.10;99.90;;;;;;5053759;28;20074;-74
2021/12/10 05:34:56;;;;;;;4.10;1.00;;;8.10;99.90;;;;;;5053205;28;20096;-75
2021/12/10 05:37:22;;;;;;;4.88;1.50;;;8.10;99.90;;;;;;5053181;28;20536;-74
2021/12/10 05:39:49;;;;;;;5.18;1.80;;;8.10;99.90;;;;;;5053156;28;20049;-75
2021/12/10 05:42:15;;;;;;;7.80;1.38;;;8.10;99.90;;;;;;5053104;28;20032;-73
2021/12/10 05:44:41;;;;;;;8.25;2.17;;;8.10;99.90;;;;;;5053399;28;20113;-74
2021/12/10 05:47:07;;;;;;;6.20;1.50;;;8.10;99.90;;;;;;5053061;28;20029;-75
2021/12/10 05:49:34;;;;;;;8.00;1.70;;;8.10;99.90;;;;;;5052963;28;20508;-74
2021/12/10 05:52:00;;;;;;;6.22;1.30;;;8.00;99.90;;;;;;5053030;28;20032;-75
2021/12/10 05:54:26;;;;;;;8.18;1.63;;;8.10;99.90;;;;;;5053005;28;20024;-73
2021/12/10 05:56:52;;;;;;;5.72;1.20;;;8.10;99.90;;;;;;5053019;28;20104;-73
2021/12/10 05:59:17;;;;;;;7.20;1.50;;;8.10;99.90;;;;;;5052977;28;20384;-76
2021/12/10 06:01:44;;;;;;;8.43;2.33;;;8.10;99.90;;;;;;5053184;28;20413;-74
2021/12/10 06:04:10;;;;;;;7.07;1.75;;;8.10;99.90;;;;;;5051679;28;20070;-76
2021/12/10 06:06:36;;;;;;;6.70;1.38;;;8.10;99.90;;;;;;5052906;28;20025;-74
2021/12/10 06:09:07;;;;;;;9.60;1.85;;;8.10;99.90;;;;;;5052840;28;20433;-75
2021/12/10 06:11:34;;;;;;;6.45;1.20;;;7.90;99.90;;;;;;5053180;28;20485;-74
2021/12/10 06:13:59;;;;;;;7.30;1.23;;;7.70;99.90;;;;;;5052837;28;20024;-73
2021/12/10 06:16:25;;;;;;;4.65;1.50;;;7.60;99.90;;;;;;5053072;28;20025;-75
2021/12/10 06:18:51;;;;;;;6.93;1.65;;;7.60;99.90;;;;;;5052794;28;20050;-75
2021/12/10 06:21:18;;;;;;;6.13;1.10;;;7.50;99.90;;;;;;5051483;28;20082;-75
2021/12/10 06:23:44;;;;;;;7.78;1.67;;;7.50;99.90;;;;;;5052723;28;20072;-74
2021/12/10 06:26:10;;;;;;;5.03;1.10;;;7.50;99.90;;;;;;5052885;28;20067;-76
2021/12/10 06:28:36;;;;;;;7.03;1.45;;;7.60;99.90;;;;;;5055085;28;20045;-76
2021/12/10 06:31:03;;;;;;;5.97;1.30;;;7.60;99.90;;;;;;5056554;28;20036;-76
2021/12/10 06:33:29;;;;;;;5.88;1.00;;;7.60;99.90;;;;;;5055193;28;20507;-74
2021/12/10 06:36:00;;;;;;;5.30;1.33;;;7.60;99.90;;;;;;5056425;28;20017;-74
2021/12/10 06:38:27;;;;;;;7.13;1.38;;;7.50;99.90;;;;;;5056681;28;20044;-75
2021/12/10 06:40:53;;;;;;;7.88;1.17;;;7.50;99.90;;;;;;5056319;28;20055;-73
2021/12/10 06:43:20;;;;;;;9.30;2.10;;;7.50;99.90;;;;;;5056310;28;20489;-75
2021/12/10 06:45:48;;;;;;;4.60;1.10;;;7.50;99.90;;;;;;5056528;28;20538;-73
2021/12/10 06:48:15;;;;;;;7.63;1.52;;;7.50;99.90;;;;;;5056404;28;20025;-75
2021/12/10 06:50:45;;;;;;;5.20;1.40;;;7.50;99.90;;;;;;5056194;28;20021;-75
2021/12/10 06:53:11;;;;;;;7.07;1.38;;;7.50;99.90;;;;;;5056149;28;20389;-75
2021/12/10 06:55:37;;;;;;;4.00;1.15;;;7.50;99.90;;;;;;5056064;28;20025;-75
2021/12/10 06:58:05;;;;;;;8.50;1.80;;;7.50;99.90;;;;;;5056008;28;20025;-76
2021/12/10 07:00:33;;;;;;;4.00;1.30;;;7.60;99.90;;;;;;5054661;28;20421;-75
2021/12/10 07:03:00;;;;;;;8.07;1.50;;;7.60;99.90;;;;;;5055932;28;20032;-75
2021/12/10 07:05:25;;;;;;;4.68;1.10;;;7.60;99.90;;;;;;5056120;28;20111;-73
2021/12/10 07:07:51;;;;;;;6.15;1.35;;;7.60;99.90;;;;;;5056270;28;20057;-74
2021/12/10 07:10:18;;;;;;;5.47;1.13;;;7.60;99.90;;;;;;5055784;28;20032;-76
2021/12/10 07:12:44;;;;;;;5.82;1.55;;;7.60;99.90;;;;;;5054461;28;20436;-75
2021/12/10 07:15:12;;;;;;;6.40;1.80;;;7.60;99.90;;;;;;5055692;28;20021;-74
2021/12/10 07:17:41;;;;;;;5.20;1.08;;;7.70;99.90;;;;;;5056255;28;20389;-75
2021/12/10 07:20:08;;;;;;;3.83;1.48;;;7.70;99.90;;;;;;5055542;28;20082;-76
2021/12/10 07:22:35;;;;;;;3.35;1.20;;;7.70;99.90;;;;;;5056104;28;20017;-75
2021/12/10 07:25:01;;;;;;;4.20;0.75;;;7.70;99.90;;;;;;5055437;28;20025;-75
2021/12/10 07:27:26;;;;;;;3.78;1.15;;;7.70;99.90;;;;;;5055218;28;20566;-73
2021/12/10 07:29:52;;;;;;;4.68;0.93;;;7.70;99.90;;;;;;5055340;28;20041;-77
2021/12/10 07:32:18;;;;;;;3.88;0.80;;;7.70;99.90;;;;;;5055380;28;20448;-77
2021/12/10 07:34:43;;;;;;;3.97;1.10;;;7.70;99.90;;;;;;5055589;28;20025;-74
2021/12/10 07:37:10;;;;;;;2.80;1.00;;;7.60;99.90;;;;;;5053537;28;20117;-75
2021/12/10 07:39:37;;;;;;;4.72;1.00;;;7.60;99.90;;;;;;5055239;28;20431;-73
2021/12/10 07:42:06;;;;;;;4.05;0.90;;;7.50;99.90;;;;;;5055205;28;20028;-75
2021/12/10 07:44:33;;;;;;;5.00;1.30;;;7.50;99.90;;;;;;5055109;28;20078;-76
2021/12/10 07:47:01;;;;;;;5.38;2.40;;;7.50;99.90;;;;;;5055106;28;20104;-74
2021/12/10 07:49:30;;;;;;;5.63;1.80;;;7.50;99.90;;;;;;5054838;28;20029;-73
2021/12/10 07:51:57;;;;;;;6.40;2.22;;;7.50;99.90;;;;;;5055027;28;20017;-76
2021/12/10 07:54:23;;;;;;;6.90;1.63;;;7.50;99.90;;;;;;5055181;28;20032;-75
2021/12/10 07:56:50;;;;;;;9.55;1.83;;;7.50;99.90;;;;;;5055188;28;20017;-74
2021/12/10 07:59:16;;;;;;;8.65;1.75;;;7.50;99.90;;;;;;5055085;28;20083;-77
2021/12/10 08:01:41;;;;;;;5.88;2.10;;;7.50;99.90;;;;;;5055072;28;20024;-77
2021/12/10 08:04:07;;;;;;;6.90;1.85;;;7.50;99.90;;;;;;5054766;28;20033;-76
2021/12/10 08:06:35;;;;;;;4.18;1.45;;;7.50;99.90;;;;;;5055067;28;20052;-75
2021/12/10 08:09:03;;;;;;;9.93;1.63;;;7.50;99.90;;;;;;5053395;28;20033;-73
2021/12/10 08:11:29;;;;;;;5.72;1.98;;;7.50;99.90;;;;;;5054623;28;20495;-75
2021/12/10 08:13:54;;;;;;;5.03;1.60;;;7.50;99.90;;;;;;5054863;28;20021;-77
2021/12/10 08:16:23;;;;;;;8.80;1.60;;;7.50;99.90;;;;;;5054529;28;20013;-75
2021/12/10 08:18:50;;;;;;;4.20;1.40;;;7.50;99.90;;;;;;5054489;28;20078;-73
2021/12/10 08:21:17;;;;;;;5.28;1.85;;;7.50;99.90;;;;;;5054440;28;20434;-76
2021/12/10 08:23:43;;;;;;;3.80;1.20;;;7.60;99.90;;;;;;5054356;28;20029;-75
2021/12/10 08:26:09;;;;;;;4.75;1.98;;;7.60;99.90;;;;;;5054893;28;20029;-75
2021/12/10 08:28:36;;;;;;;5.70;1.40;;;7.60;99.90;;;;;;5054116;28;20537;-75
2021/12/10 08:31:04;;;;;;;4.47;1.13;;;7.60;99.90;;;;;;5054232;28;20017;-74
2021/12/10 08:33:31;;;;;;;4.07;1.38;;;7.60;99.90;;;;;;5054163;28;20052;-74
2021/12/10 08:36:02;;;;;;;4.10;0.90;;;7.70;99.90;;;;;;5054140;28;20017;-75
2021/12/10 08:38:29;;;;;;;4.68;2.03;;;7.70;99.90;;;;;;5054458;28;20033;-74
2021/12/10 08:41:03;;;;;;;5.50;1.02;;;7.70;99.90;;;;;;5052685;28;20028;-75
2021/12/10 08:43:30;;;;;;;4.72;1.10;;;7.70;99.90;;;;;;5054339;28;20029;-77
2021/12/10 08:45:56;;;;;;;8.45;1.38;;;7.60;99.90;;;;;;5054019;28;20031;-74
2021/12/10 08:48:25;;;;;;;4.53;0.93;;;7.50;99.90;;;;;;5053814;28;20048;-75
2021/12/10 08:50:53;;;;;;;3.88;1.02;;;7.50;99.90;;;;;;5053208;28;20025;-76
2021/12/10 08:53:19;;;;;;;6.22;2.15;;;7.40;99.90;;;;;;5054042;28;20025;-75
2021/12/10 08:55:48;;;;;;;8.43;1.35;;;7.50;99.90;;;;;;5054035;28;20025;-76
2021/12/10 08:58:15;;;;;;;3.63;1.20;;;7.50;99.90;;;;;;5053625;28;20036;-75
2021/12/10 09:00:45;;;;;;;7.28;1.40;;;7.60;99.90;;;;;;5053677;28;20032;-75
2021/12/10 09:03:11;;;;;;;3.17;1.00;;;7.60;99.90;;;;;;5053973;28;20485;-74
2021/12/10 09:05:37;;;;;;;6.28;1.50;;;7.60;99.90;;;;;;5053625;28;20021;-75
2021/12/10 09:08:03;;;;;;;6.75;1.40;;;7.70;99.90;;;;;;5053497;28;20425;-74
2021/12/10 09:10:34;;;;;;;5.78;1.42;;;7.70;99.90;;;;;;5053555;28;20008;-74
2021/12/10 09:13:00;;;;;;;;;;;7.70;99.90;;;;;;5054566;28;20021;-77
2021/12/10 09:15:28;;;;;;;6.63;1.48;;;7.80;99.90;;;;;;5053764;28;19905;-74
2021/12/10 09:17:58;;;;;;;7.55;1.85;;;7.70;99.90;;;;;;5053465;28;20021;-74
2021/12/10 09:20:31;;;;;;;7.13;1.52;;;7.70;99.90;;;;;;5053404;28;20381;-73
2021/12/10 09:22:57;;;;;;;5.43;1.67;;;7.80;99.90;;;;;;5053939;28;20075;-74
2021/12/10 09:25:24;;;;;;;7.78;1.27;;;7.90;99.90;;;;;;5053236;28;20478;-75
2021/12/10 09:27:50;;;;;;;5.10;1.35;;;8.00;99.90;;;;;;5051737;28;20099;-76
2021/12/10 09:30:19;;;;;;;2.25;1.10;;;8.10;99.90;;;;;;5053198;28;20029;-72
2021/12/10 09:32:45;;;;;;;2.35;1.10;;;8.20;99.90;;;;;;5053234;28;20087;-76
2021/12/10 09:35:13;;;;;;;6.85;1.33;;;8.30;99.90;;;;;;5053478;28;20024;-75
2021/12/10 09:37:40;;;;;;;6.95;1.27;;;8.30;99.90;;;;;;5053203;28;20047;-72
2021/12/10 09:40:13;;;;;;;7.43;1.90;;;8.30;99.90;;;;;;5053168;28;20031;-72
2021/12/10 09:42:42;;;;;;;5.30;1.45;;;8.30;99.90;;;;;;5053750;28;20029;-72
2021/12/10 09:45:10;;;;;;;2.75;1.08;;;8.30;99.90;;;;;;5053158;28;20049;-71
2021/12/10 09:47:37;;;;;;;5.57;1.48;;;8.40;99.90;;;;;;5053331;28;20025;-71
2021/12/10 09:50:05;;;;;;;6.82;1.50;;;8.40;99.90;;;;;;5053258;28;20116;-74
2021/12/10 09:52:31;;;;;;;7.55;1.40;;;8.40;99.90;;;;;;5053258;28;20018;-72
2021/12/10 09:54:57;;;;;;;6.93;1.63;;;8.40;99.90;;;;;;5053050;28;20032;-73
2021/12/10 09:57:27;;;;;;;9.32;1.40;;;8.40;99.90;;;;;;5053336;28;20469;-75
2021/12/10 09:59:55;;;;;;;5.43;2.07;;;8.40;99.90;;;;;;5052987;28;20029;-74
2021/12/10 10:02:24;;;;;;;9.35;1.60;;;8.30;99.90;;;;;;5057029;28;20037;-74
2021/12/10 10:04:51;;;;;;;7.22;1.60;;;8.40;99.90;;;;;;5057029;28;20017;-76
2021/12/10 10:07:25;;;;;;;5.65;1.83;;;8.30;99.90;;;;;;5056993;28;20069;-74
2021/12/10 10:09:54;;;;;;;7.95;1.40;;;8.30;99.90;;;;;;5057219;28;20032;-75
2021/12/10 10:12:24;;;;;;;6.45;2.10;;;8.50;99.90;;;;;;5056926;28;20024;-74
2021/12/10 10:14:50;;;;;;;10.05;1.83;;;8.60;99.90;;;;;;5057161;28;20021;-74
2021/12/10 10:17:17;;;;;;;8.80;1.65;;;8.70;99.90;;;;;;5056778;28;20021;-75
2021/12/10 10:19:44;;;;;;;7.68;1.55;;;8.80;99.90;;;;;;5056770;28;20100;-73
2021/12/10 10:22:13;;;;;;;10.38;2.83;;;8.90;99.90;;;;;;5057278;28;20033;-75
2021/12/10 10:24:39;;;;;;;10.95;2.30;;;9.00;99.90;;;;;;5056664;28;20481;-72
2021/12/10 10:27:13;;;;;;;10.02;2.17;;;9.10;99.90;;;;;;5056416;28;20051;-74
2021/12/10 10:29:42;;;;;;;7.53;2.03;;;9.10;99.90;;;;;;5056775;28;20389;-74
2021/12/10 10:32:13;;;;;;;6.30;1.77;;;9.20;99.90;;;;;;5056483;28;20032;-73
2021/12/10 10:34:45;;;;;;;5.78;1.92;;;9.20;99.90;;;;;;5056857;28;20019;-76
2021/12/10 10:37:12;;;;;;;9.68;2.22;;;9.20;99.90;;;;;;5056746;28;20465;-73
2021/12/10 10:39:40;;;;;;;5.55;1.75;;;9.30;99.90;;;;;;5056390;28;20032;-74
2021/12/10 10:42:15;;;;;;;9.18;1.67;;;9.30;99.90;;;;;;5055105;28;20025;-75
2021/12/10 10:44:43;;;;;;;10.45;2.60;;;9.40;99.90;;;;;;5054761;28;20037;-74
2021/12/10 10:47:09;;;;;;;7.18;1.95;;;9.40;99.90;;;;;;5056240;28;20025;-74
2021/12/10 10:49:48;;;;;;;10.23;1.75;;;9.40;99.90;;;;;;5056122;28;20021;-76
2021/12/10 10:52:31;;;;;;;11.85;2.88;;;9.50;99.90;;;;;;5056755;28;20052;-72
2021/12/10 10:55:20;;;;;;;6.20;1.55;;;9.50;99.90;;;;;;5056696;28;20090;-73
2021/12/10 10:57:59;;;;;;;6.85;1.90;;;9.60;99.90;;;;;;5055751;28;20033;-72
2021/12/10 11:00:44;;;;;;;8.77;1.88;;;9.80;99.90;;;;;;5055962;28;20055;-73
2021/12/10 11:03:14;;;;;;;7.57;1.98;;;10.00;99.90;;;;;;5056541;28;20483;-75
2021/12/10 11:05:48;;;;;;;6.43;1.65;;;9.90;99.90;;;;;;5055870;28;20025;-73
2021/12/10 11:08:23;;;;;;;9.55;2.45;;;10.00;99.90;;;;;;5055782;28;20029;-74
2021/12/10 11:10:51;;;;;;;7.20;1.92;;;10.00;99.90;;;;;;5056125;28;20025;-72
2021/12/10 11:13:21;;;;;;;8.57;2.35;;;9.80;99.90;;;;;;5055201;28;20025;-71
2021/12/10 11:15:55;;;;;;;5.45;1.55;;;9.70;99.90;;;;;;5055972;28;20047;-74
2021/12/10 11:18:20;;;;;;;7.50;2.00;;;9.80;99.90;;;;;;5055637;28;20078;-76
2021/12/10 11:20:46;;;;;;;8.90;2.38;;;9.90;99.90;;;;;;5055847;28;20472;-75
2021/12/10 11:23:13;;;;;;;6.70;1.83;;;9.80;99.90;;;;;;5055461;28;20025;-74
2021/12/10 11:25:43;;;;;;;7.20;2.03;;;9.80;99.90;;;;;;5055505;28;20029;-74
2021/12/10 11:28:20;;;;;;;10.32;2.42;;;9.80;99.90;;;;;;5055081;28;20515;-73
2021/12/10 11:30:50;;;;;;;6.78;1.30;;;9.80;99.90;;;;;;5055419;28;20481;-73
2021/12/10 11:33:22;;;;;;;9.85;2.90;;;9.80;99.90;;;;;;5055391;28;20473;-74
2021/12/10 11:36:00;;;;;;;6.93;2.28;;;9.80;99.90;;;;;;5055651;28;20067;-73
2021/12/10 11:38:29;;;;;;;7.90;2.25;;;9.80;99.90;;;;;;5053827;28;20087;-76
2021/12/10 11:41:12;;;;;;;9.48;2.78;;;9.90;99.90;;;;;;5055207;28;20025;-75
2021/12/10 11:46:46;;;;;;;6.82;1.83;;;10.00;99.90;;;;;;5055650;28;20021;-78
2021/12/10 11:49:17;;;;;;;6.82;1.52;;;9.90;99.90;;;;;;5055328;28;20025;-74
2021/12/10 11:51:54;;;;;;;5.90;1.92;;;9.80;99.90;;;;;;5055013;28;20013;-72
2021/12/10 11:54:44;;;;;;;6.80;1.48;;;9.70;99.90;;;;;;5055623;28;20032;-72
2021/12/10 11:57:16;;;;;;;8.23;1.80;;;9.50;99.90;;;;;;5053433;28;20402;-74
2021/12/10 11:59:52;;;;;;;11.55;1.90;;;9.40;99.90;;;;;;5055227;28;20108;-73
2021/12/10 12:02:22;;;;;;;10.90;2.17;;;9.40;99.90;;;;;;5055178;28;20029;-74
2021/12/10 12:04:55;;;;;;;10.10;2.13;;;9.40;99.90;;;;;;5055445;28;20025;-74
2021/12/10 12:07:40;;;;;;;7.40;0.95;;;9.30;99.90;;;;;;5054794;28;20033;-74
2021/12/10 12:10:15;;;;;;;4.25;1.20;;;9.10;99.90;;;;;;5055199;28;20055;-75
2021/12/10 12:12:46;;;;;;;6.50;1.15;;;8.20;99.90;;;;;;5054984;28;20021;-74
2021/12/10 12:15:34;;;;;;;7.22;1.65;;;8.00;99.90;;;;;;5054843;28;20381;-75
2021/12/10 12:18:04;;;;;;;9.93;1.63;;;8.00;99.90;;;;;;5054857;28;20104;-72
2021/12/10 12:20:33;;;;;;;7.22;1.70;;;8.10;99.90;;;;;;5053973;28;20029;-72
2021/12/10 12:25:56;;;;;;;10.07;1.85;;;8.10;99.90;;;;;;5054425;28;20071;-76
2021/12/10 12:28:24;;;;;;;8.48;1.45;;;8.10;99.90;;;;;;5053866;28;20102;-75
2021/12/10 12:31:08;;;;;;;10.82;2.30;;;8.20;99.90;;;;;;5054823;28;20017;-72
2021/12/10 12:33:59;;;;;;;8.90;2.88;;;8.30;99.90;;;;;;5054521;28;20025;-74
2021/12/10 12:36:42;;;;;;;10.38;2.95;;;8.50;99.90;;;;;;5054191;28;20025;-75
2021/12/10 12:39:44;;;;;;;7.47;2.00;;;8.60;99.90;;;;;;5054457;28;20033;-73
2021/12/10 12:42:29;;;;;;;6.97;1.85;;;8.80;99.90;;;;;;5054708;28;20017;-74
2021/12/10 12:45:16;;;;;;;9.27;1.83;;;8.90;99.90;;;;;;5054619;28;20047;-75
2021/12/10 12:47:49;;;;;;;8.57;2.00;;;9.00;99.90;;;;;;5054277;28;20029;-73
2021/12/10 12:50:26;;;;;;;8.10;1.90;;;9.10;99.90;;;;;;5054445;28;20537;-73
2021/12/10 12:52:57;;;;;;;8.88;2.00;;;9.20;99.90;;;;;;5053897;28;20033;-76
2021/12/10 12:55:47;;;;;;;4.25;1.75;;;9.20;99.90;;;;;;5053783;28;20514;-74
2021/12/10 12:58:24;;;;;;;6.97;1.58;;;9.20;99.90;;;;;;5054086;28;20075;-74
2021/12/10 13:01:09;;;;;;;18.88;2.50;;;9.30;99.90;;;;;;5053973;28;20485;-75
2021/12/10 13:03:47;;;;;;;10.00;2.45;;;9.30;99.90;;;;;;5053931;28;20485;-72
2021/12/10 13:06:27;;;;;;;8.23;1.77;;;9.30;99.90;;;;;;5053871;28;20028;-74
2021/12/10 13:09:06;;;;;;;9.40;1.48;;;9.40;99.90;;;;;;5053818;28;20112;-73
2021/12/10 13:11:47;;;;;;;8.40;1.50;;;9.50;99.90;;;;;;5053589;28;20418;-75
2021/12/10 13:14:16;;;;;;;6.50;1.90;;;9.50;99.90;;;;;;5052041;28;20120;-73
2021/12/10 13:16:50;;;;;;;7.70;2.20;;;9.50;99.90;;;;;;5053701;28;20024;-73
2021/12/10 13:19:21;;;;;;;7.18;2.03;;;9.50;99.90;;;;;;5053436;28;20060;-75
2021/12/10 13:21:52;;;;;;;9.65;2.35;;;9.50;99.90;;;;;;5053720;28;20094;-75